createdAt,value
2022-12-19T00:00:43.726Z,27.10
2022-12-19T00:03:26.042Z,25.80
2022-12-19T00:05:54.084Z,26.30
2022-12-19T00:08:21.927Z,25.20
2022-12-19T00:10:58.744Z,25.30
2022-12-19T00:13:27.505Z,26.70
2022-12-19T00:16:06.581Z,24.70
2022-12-19T00:18:34.712Z,23.50
2022-12-19T00:21:05.357Z,23.00
2022-12-19T00:23:34.759Z,22.00
2022-12-19T00:26:14.648Z,21.10
2022-12-19T00:28:45.059Z,21.20
2022-12-19T00:31:15.861Z,19.20
2022-12-19T00:33:44.457Z,20.90
2022-12-19T00:36:27.666Z,23.40
2022-12-19T00:38:57.606Z,24.00
2022-12-19T00:41:30.793Z,25.70
2022-12-19T00:44:08.864Z,26.70
2022-12-19T00:46:37.484Z,27.60
2022-12-19T00:49:06.396Z,26.50
2022-12-19T00:51:36.393Z,27.20
2022-12-19T00:54:05.385Z,25.50
2022-12-19T00:56:37.858Z,24.90
2022-12-19T00:59:06.454Z,26.70
2022-12-19T01:01:38.025Z,27.30
2022-12-19T01:07:01.131Z,23.50
2022-12-19T01:09:31.665Z,25.00
2022-12-19T01:12:18.279Z,24.10
2022-12-19T01:14:46.320Z,24.40
2022-12-19T01:17:14.263Z,25.10
2022-12-19T01:19:44.391Z,24.60
2022-12-19T01:22:13.725Z,23.90
2022-12-19T01:24:41.854Z,25.40
2022-12-19T01:27:09.787Z,25.30
2022-12-19T01:29:51.919Z,23.90
2022-12-19T01:32:22.267Z,22.40
2022-12-19T01:34:50.230Z,23.80
2022-12-19T01:37:18.710Z,22.20
2022-12-19T01:39:46.594Z,25.00
2022-12-19T01:42:23.680Z,24.20
2022-12-19T01:45:32.065Z,26.20
2022-12-19T01:48:30.740Z,26.30
2022-12-19T01:51:02.677Z,25.00
2022-12-19T01:53:49.074Z,25.80
2022-12-19T01:56:29.538Z,25.90
2022-12-19T01:59:05.978Z,27.30
2022-12-19T02:01:35.772Z,27.20
2022-12-19T02:04:12.707Z,27.00
2022-12-19T02:06:43.113Z,27.00
2022-12-19T02:09:11.911Z,28.00
2022-12-19T02:11:40.037Z,27.00
2022-12-19T02:14:07.905Z,29.30
2022-12-19T02:16:38.776Z,26.50
2022-12-19T02:19:42.207Z,26.20
2022-12-19T02:22:20.745Z,26.50
2022-12-19T02:25:14.712Z,26.70
2022-12-19T02:27:58.029Z,26.50
2022-12-19T02:30:37.798Z,27.20
2022-12-19T02:33:30.508Z,27.40
2022-12-19T02:36:08.337Z,24.70
2022-12-19T02:38:52.345Z,24.90
2022-12-19T02:43:59.032Z,26.80
2022-12-19T02:46:28.547Z,25.30
2022-12-19T02:48:57.132Z,25.40
2022-12-19T02:51:25.057Z,23.20
2022-12-19T02:53:52.920Z,24.20
2022-12-19T02:56:30.060Z,24.30
2022-12-19T02:59:00.774Z,24.00
2022-12-19T03:01:57.935Z,21.20
2022-12-19T03:04:37.730Z,22.90
2022-12-19T03:07:27.700Z,23.40
2022-12-19T03:10:15.037Z,24.90
2022-12-19T03:12:54.138Z,25.30
2022-12-19T03:15:23.729Z,25.50
2022-12-19T03:17:52.855Z,23.80
2022-12-19T03:20:32.979Z,24.30
2022-12-19T03:23:01.065Z,23.90
2022-12-19T03:25:30.747Z,25.10
2022-12-19T03:28:04.929Z,23.40
2022-12-19T03:30:35.959Z,23.80
2022-12-19T03:33:04.302Z,24.00
2022-12-19T03:35:35.694Z,24.70
2022-12-19T03:38:06.043Z,26.30
2022-12-19T03:40:37.160Z,24.10
2022-12-19T03:43:11.370Z,24.90
2022-12-19T03:45:39.907Z,23.80
2022-12-19T03:48:14.203Z,24.30
2022-12-19T03:50:54.265Z,24.00
2022-12-19T03:53:27.620Z,25.10
2022-12-19T03:56:06.736Z,25.40
2022-12-19T03:58:38.652Z,26.90
2022-12-19T04:01:07.550Z,26.10
2022-12-19T04:03:36.013Z,25.20
2022-12-19T04:06:05.807Z,27.10
2022-12-19T04:08:35.613Z,27.90
2022-12-19T04:11:16.620Z,24.80
2022-12-19T04:13:57.278Z,26.00
2022-12-19T04:16:33.887Z,27.00
2022-12-19T04:19:10.787Z,23.60
2022-12-19T04:21:49.363Z,28.50
2022-12-19T04:24:29.324Z,27.30
2022-12-19T04:26:59.721Z,26.10
2022-12-19T04:29:31.495Z,26.90
2022-12-19T04:32:01.921Z,27.10
2022-12-19T04:34:32.557Z,25.70
2022-12-19T04:37:03.844Z,26.00
2022-12-19T04:39:32.093Z,23.50
2022-12-19T04:42:00.153Z,25.80
2022-12-19T04:44:28.067Z,24.10
2022-12-19T04:46:55.955Z,24.10
2022-12-19T04:49:23.868Z,24.20
2022-12-19T04:51:52.400Z,24.50
2022-12-19T04:54:20.495Z,23.50
2022-12-19T04:56:48.363Z,24.50
2022-12-19T04:59:16.205Z,23.30
2022-12-19T05:01:44.105Z,24.60
2022-12-19T05:04:12.169Z,24.30
2022-12-19T05:06:40.012Z,25.50
2022-12-19T05:09:10.192Z,25.20
2022-12-19T05:11:38.281Z,23.40
2022-12-19T05:14:06.275Z,25.60
2022-12-19T05:16:34.206Z,25.30
2022-12-19T05:19:02.218Z,24.40
2022-12-19T05:21:30.178Z,25.10
2022-12-19T05:23:58.233Z,23.20
2022-12-19T05:26:26.184Z,22.70
2022-12-19T05:28:54.070Z,24.00
2022-12-19T05:31:22.612Z,23.90
2022-12-19T05:33:51.037Z,22.60
2022-12-19T05:36:19.076Z,22.30
2022-12-19T05:38:47.052Z,22.80
2022-12-19T05:41:17.765Z,25.90
2022-12-19T05:43:49.818Z,24.80
2022-12-19T05:46:18.395Z,23.20
2022-12-19T05:48:47.413Z,22.50
2022-12-19T05:51:16.514Z,23.40
2022-12-19T05:53:44.880Z,23.60
2022-12-19T05:56:18.415Z,24.00
2022-12-19T05:58:46.880Z,23.50
2022-12-19T06:01:18.499Z,25.10
2022-12-19T06:03:46.661Z,23.20
2022-12-19T06:06:17.828Z,25.10
2022-12-19T06:08:46.101Z,24.20
2022-12-19T06:11:15.162Z,23.10
2022-12-19T06:13:43.062Z,23.50
2022-12-19T06:16:14.264Z,24.80
2022-12-19T06:18:45.006Z,24.50
2022-12-19T06:21:22.463Z,22.60
2022-12-19T06:23:50.904Z,25.30
2022-12-19T06:26:21.241Z,24.10
2022-12-19T06:28:51.685Z,24.80
2022-12-19T06:31:22.072Z,24.90
2022-12-19T06:33:50.059Z,26.10
2022-12-19T06:36:27.027Z,25.30
2022-12-19T06:38:57.938Z,27.50
2022-12-19T06:41:45.599Z,24.80
2022-12-19T06:44:16.572Z,24.70
2022-12-19T06:46:44.784Z,23.50
2022-12-19T06:49:12.670Z,25.80
2022-12-19T06:51:40.868Z,26.20
2022-12-19T06:54:13.352Z,27.00
2022-12-19T06:56:43.091Z,27.10
2022-12-19T06:59:14.542Z,27.80
2022-12-19T07:01:46.302Z,25.60
2022-12-19T07:04:20.489Z,26.50
2022-12-19T07:06:49.345Z,27.20
2022-12-19T07:09:18.481Z,29.50
2022-12-19T07:11:46.419Z,30.10
2022-12-19T07:14:14.371Z,30.40
2022-12-19T07:16:42.687Z,32.50
2022-12-19T07:19:10.756Z,33.40
2022-12-19T07:21:39.394Z,35.50
2022-12-19T07:24:09.080Z,35.50
2022-12-19T07:26:37.509Z,36.30
2022-12-19T07:29:05.846Z,33.50
2022-12-19T07:31:36.512Z,33.90
2022-12-19T07:34:04.593Z,33.60
2022-12-19T07:36:32.587Z,32.00
2022-12-19T07:39:00.554Z,35.80
2022-12-19T07:41:28.511Z,36.90
2022-12-19T07:43:56.356Z,37.20
2022-12-19T07:46:24.342Z,33.90
2022-12-19T07:48:52.340Z,34.40
2022-12-19T07:51:20.239Z,37.20
2022-12-19T07:53:48.735Z,35.40
2022-12-19T07:56:17.491Z,33.90
2022-12-19T07:58:45.810Z,37.40
2022-12-19T08:01:13.692Z,37.60
2022-12-19T08:03:41.679Z,38.30
2022-12-19T08:06:10.165Z,35.40
2022-12-19T08:08:38.272Z,35.80
2022-12-19T08:11:27.721Z,35.80
2022-12-19T08:13:58.973Z,37.10
2022-12-19T08:16:28.352Z,33.50
2022-12-19T08:18:56.252Z,35.30
2022-12-19T08:21:25.229Z,36.30
2022-12-19T08:23:53.430Z,33.70
2022-12-19T08:26:25.499Z,30.20
2022-12-19T08:29:02.799Z,36.00
2022-12-19T08:31:42.235Z,31.20
2022-12-19T08:34:10.505Z,31.70
2022-12-19T08:39:43.268Z,34.20
2022-12-19T08:42:11.217Z,37.20
2022-12-19T08:44:39.088Z,39.10
2022-12-19T08:47:06.988Z,36.00
2022-12-19T08:49:34.975Z,33.00
2022-12-19T08:52:03.032Z,36.50
2022-12-19T08:54:31.043Z,33.30
2022-12-19T08:56:59.036Z,33.40
2022-12-19T08:59:31.242Z,32.30
2022-12-19T09:02:01.178Z,30.90
2022-12-19T09:05:21.317Z,32.50
2022-12-19T09:07:17.804Z,32.10
2022-12-19T09:09:45.727Z,32.80
2022-12-19T09:12:15.468Z,30.20
2022-12-19T09:14:44.401Z,24.10
2022-12-19T09:17:12.660Z,26.40
2022-12-19T09:19:41.178Z,26.50
2022-12-19T09:22:16.423Z,25.50
2022-12-19T09:24:44.632Z,27.60
2022-12-19T09:27:12.761Z,27.20
2022-12-19T09:29:43.724Z,26.10
2022-12-19T09:32:11.807Z,26.40
2022-12-19T09:34:39.746Z,23.60
2022-12-19T09:37:09.195Z,21.40
2022-12-19T09:39:48.376Z,22.20
2022-12-19T09:42:22.379Z,23.70
2022-12-19T09:47:44.201Z,24.50
2022-12-19T09:50:29.272Z,21.10
2022-12-19T09:53:13.435Z,20.70
2022-12-19T09:58:41.632Z,21.40
2022-12-19T10:01:36.393Z,21.80
2022-12-19T10:04:11.594Z,21.90
2022-12-19T10:07:11.330Z,20.10
2022-12-19T10:12:30.094Z,20.40
2022-12-19T10:13:12.868Z,22.30
2022-12-19T10:16:13.675Z,22.40
2022-12-19T10:18:57.108Z,21.80
2022-12-19T10:22:16.342Z,22.00
2022-12-19T10:24:35.391Z,22.70
2022-12-19T10:27:20.705Z,24.40
2022-12-19T10:30:16.745Z,26.30
2022-12-19T10:33:01.384Z,23.90
2022-12-19T10:35:36.292Z,22.60
2022-12-19T10:38:07.368Z,22.40
2022-12-19T10:40:44.254Z,22.90
2022-12-19T10:43:32.345Z,23.20
2022-12-19T10:46:11.791Z,22.00
2022-12-19T10:48:39.755Z,23.00
2022-12-19T10:51:13.838Z,24.30
2022-12-19T10:53:49.206Z,21.80
2022-12-19T10:56:30.343Z,21.20
2022-12-19T10:59:03.200Z,21.90
2022-12-19T11:01:35.760Z,21.20
2022-12-19T11:04:22.990Z,22.50
2022-12-19T11:07:04.674Z,22.10
2022-12-19T11:09:41.740Z,23.60
2022-12-19T11:15:26.377Z,24.40
2022-12-19T11:20:24.741Z,23.20
2022-12-19T11:28:18.224Z,24.40
2022-12-19T11:29:27.699Z,26.10
2022-12-19T11:30:34.346Z,25.30
2022-12-19T11:30:36.479Z,26.80
2022-12-19T11:32:41.419Z,24.00
2022-12-19T11:35:17.253Z,24.50
2022-12-19T11:37:48.379Z,23.90
2022-12-19T11:40:28.454Z,23.30
2022-12-19T11:43:42.103Z,23.20
2022-12-19T11:45:59.863Z,23.20
2022-12-19T11:48:55.792Z,22.90
2022-12-19T11:51:26.365Z,24.40
2022-12-19T11:54:22.333Z,21.60
2022-12-19T11:56:50.488Z,21.20
2022-12-19T11:59:18.220Z,20.50
2022-12-19T12:01:58.573Z,20.20
2022-12-19T12:04:38.635Z,20.40
2022-12-19T12:07:18.547Z,19.00
2022-12-19T12:16:13.560Z,20.40
2022-12-19T12:21:19.544Z,19.20
2022-12-19T12:27:29.812Z,20.20
2022-12-19T12:31:08.902Z,21.00
2022-12-19T12:31:41.610Z,20.50
2022-12-19T12:31:57.748Z,19.90
2022-12-19T12:32:04.346Z,18.50
2022-12-19T12:35:33.436Z,19.80
2022-12-19T12:38:26.901Z,18.30
2022-12-19T12:41:46.950Z,20.00
2022-12-19T12:44:29.256Z,20.20
2022-12-19T12:47:24.690Z,18.30
2022-12-19T12:50:08.718Z,19.70
2022-12-19T12:52:43.453Z,19.40
2022-12-19T12:55:24.632Z,20.10
2022-12-19T12:57:52.521Z,20.50
2022-12-19T13:00:26.772Z,21.40
2022-12-19T13:03:14.590Z,21.10
2022-12-19T13:05:48.886Z,18.80
2022-12-19T13:08:40.082Z,20.50
2022-12-19T13:11:38.834Z,19.80
2022-12-19T13:14:35.736Z,20.50
2022-12-19T13:17:06.059Z,16.90
2022-12-19T13:19:54.250Z,18.20
2022-12-19T13:22:38.338Z,18.70
2022-12-19T13:25:34.511Z,17.50
2022-12-19T13:28:02.360Z,16.00
2022-12-19T13:30:33.688Z,17.80
2022-12-19T13:33:20.932Z,17.00
2022-12-19T13:39:46.473Z,16.90
2022-12-19T13:39:55.289Z,16.60
2022-12-19T13:42:01.577Z,18.70
2022-12-19T13:44:31.986Z,20.20
2022-12-19T13:46:59.851Z,20.10
2022-12-19T13:49:34.508Z,17.60
2022-12-19T13:52:05.291Z,17.20
2022-12-19T13:54:49.411Z,17.90
2022-12-19T13:57:24.888Z,18.70
2022-12-19T13:59:59.540Z,18.00
2022-12-19T14:02:45.140Z,16.40
2022-12-19T14:05:33.911Z,17.10
2022-12-19T14:08:23.267Z,17.60
2022-12-19T14:11:31.598Z,19.40
2022-12-19T14:14:16.479Z,19.10
2022-12-19T14:16:48.377Z,16.10
2022-12-19T14:19:27.980Z,17.50
2022-12-19T14:22:15.943Z,16.50
2022-12-19T14:26:06.052Z,18.20
2022-12-19T14:28:27.734Z,18.60
2022-12-19T14:30:54.021Z,18.30
2022-12-19T14:33:46.310Z,17.90
2022-12-19T14:36:27.039Z,17.40
2022-12-19T14:39:22.888Z,17.20
2022-12-19T14:42:05.741Z,19.00
2022-12-19T14:52:25.320Z,19.50
2022-12-19T14:54:06.398Z,18.40
2022-12-19T14:54:22.236Z,17.00
2022-12-19T14:54:37.841Z,18.20
2022-12-19T14:56:52.058Z,19.40
2022-12-19T14:59:20.731Z,19.10
2022-12-19T15:01:54.137Z,20.20
2022-12-19T15:04:51.622Z,21.10
2022-12-19T15:07:24.026Z,23.20
2022-12-19T15:11:03.852Z,24.50
2022-12-19T15:14:53.787Z,23.40
2022-12-19T15:16:06.285Z,23.60
2022-12-19T15:18:34.370Z,23.40
2022-12-19T15:21:10.773Z,22.10
2022-12-19T15:23:39.693Z,22.40
2022-12-19T15:26:13.186Z,21.20
2022-12-19T15:28:43.681Z,25.20
2022-12-19T15:31:35.226Z,24.20
2022-12-19T15:34:41.609Z,24.70
2022-12-19T15:37:17.030Z,24.60
2022-12-19T15:39:45.504Z,23.80
2022-12-19T15:42:20.222Z,24.00
2022-12-19T15:44:52.331Z,24.90
2022-12-19T15:47:33.339Z,24.10
2022-12-19T15:50:03.991Z,27.30
2022-12-19T15:52:31.918Z,29.10
2022-12-19T15:54:59.841Z,28.40
2022-12-19T15:57:38.677Z,27.60
2022-12-19T16:00:18.523Z,28.00
2022-12-19T16:05:35.901Z,27.20
2022-12-19T16:08:11.761Z,26.60
2022-12-19T16:10:40.668Z,25.90
2022-12-19T16:13:18.678Z,23.80
2022-12-19T16:15:47.072Z,24.00
2022-12-19T16:18:15.525Z,24.00
2022-12-19T16:20:43.771Z,25.50
2022-12-19T16:23:12.754Z,26.20
2022-12-19T16:25:45.496Z,25.30
2022-12-19T16:28:19.163Z,24.60
2022-12-19T16:30:47.428Z,25.20
2022-12-19T16:33:21.673Z,26.10
2022-12-19T16:36:07.139Z,24.40
2022-12-19T16:38:36.654Z,24.00
2022-12-19T16:41:04.774Z,24.10
2022-12-19T16:43:42.565Z,23.30
2022-12-19T16:46:17.244Z,25.80
2022-12-19T16:48:45.925Z,27.50
2022-12-19T16:51:23.564Z,26.50
2022-12-19T16:53:54.099Z,25.10
2022-12-19T16:56:55.581Z,24.20
2022-12-19T16:59:23.544Z,24.00
2022-12-19T17:01:51.894Z,25.40
2022-12-19T17:04:22.919Z,22.80
2022-12-19T17:06:53.776Z,24.20
2022-12-19T17:09:23.933Z,24.70
2022-12-19T17:11:54.319Z,23.40
2022-12-19T17:14:26.209Z,23.30
2022-12-19T17:16:55.934Z,24.50
2022-12-19T17:19:36.205Z,25.10
2022-12-19T17:22:13.593Z,23.60
2022-12-19T17:24:42.164Z,24.40
2022-12-19T17:27:10.185Z,24.30
2022-12-19T17:30:01.258Z,23.90
2022-12-19T17:32:45.790Z,24.20
2022-12-19T17:35:35.933Z,23.50
2022-12-19T17:38:20.255Z,23.70
2022-12-19T17:40:48.838Z,23.80
2022-12-19T17:43:16.837Z,24.50
2022-12-19T17:45:45.108Z,26.50
2022-12-19T17:48:23.395Z,27.80
2022-12-19T17:50:52.453Z,27.30
2022-12-19T17:53:20.478Z,25.10
2022-12-19T17:55:48.698Z,24.50
2022-12-19T17:58:16.749Z,24.50
2022-12-19T18:00:47.079Z,25.90
2022-12-19T18:03:21.664Z,27.50
2022-12-19T18:05:51.892Z,26.50
2022-12-19T18:08:28.814Z,26.10
2022-12-19T18:10:59.686Z,26.80
2022-12-19T18:13:29.841Z,28.80
2022-12-19T18:16:00.818Z,29.00
2022-12-19T18:18:36.660Z,29.30
2022-12-19T18:21:05.186Z,31.00
2022-12-19T18:23:33.730Z,30.00
2022-12-19T18:26:02.823Z,30.10
2022-12-19T18:28:31.181Z,31.50
2022-12-19T18:31:11.351Z,31.50
2022-12-19T18:33:41.871Z,32.80
2022-12-19T18:36:17.582Z,33.70
2022-12-19T18:38:45.801Z,29.60
2022-12-19T18:41:13.849Z,31.80
2022-12-19T18:43:41.937Z,30.90
2022-12-19T18:46:14.968Z,34.50
2022-12-19T18:48:46.304Z,34.60
2022-12-19T18:51:18.142Z,28.10
2022-12-19T18:53:47.252Z,30.60
2022-12-19T18:56:15.608Z,31.20
2022-12-19T18:58:43.640Z,28.70
2022-12-19T19:01:21.784Z,26.80
2022-12-19T19:03:55.138Z,30.50
2022-12-19T19:06:28.760Z,28.70
2022-12-19T19:08:58.372Z,25.50
2022-12-19T19:11:30.038Z,30.10
2022-12-19T19:13:58.004Z,30.50
2022-12-19T19:16:27.941Z,29.90
2022-12-19T19:18:58.663Z,29.70
2022-12-19T19:21:30.138Z,27.90
2022-12-19T19:24:04.085Z,29.60
2022-12-19T19:26:32.273Z,30.60
2022-12-19T19:29:00.115Z,28.50
2022-12-19T19:31:32.286Z,29.90
2022-12-19T19:34:06.736Z,29.40
2022-12-19T19:36:36.706Z,32.50
2022-12-19T19:39:05.450Z,32.50
2022-12-19T19:41:34.427Z,32.30
2022-12-19T19:44:03.127Z,29.40
2022-12-19T19:46:39.906Z,29.70
2022-12-19T19:49:07.853Z,30.40
2022-12-19T19:51:36.067Z,30.30
2022-12-19T19:54:05.639Z,30.80
2022-12-19T19:56:35.717Z,32.00
2022-12-19T19:59:12.263Z,30.00
2022-12-19T20:01:43.364Z,31.00
2022-12-19T20:04:22.412Z,31.10
2022-12-19T20:06:50.705Z,33.10
2022-12-19T20:09:18.778Z,34.60
2022-12-19T20:11:46.856Z,35.90
2022-12-19T20:14:17.911Z,31.90
2022-12-19T20:16:52.226Z,32.90
2022-12-19T20:19:21.524Z,34.10
2022-12-19T20:21:49.725Z,34.60
2022-12-19T20:24:21.791Z,34.90
2022-12-19T20:26:49.904Z,34.20
2022-12-19T20:29:19.373Z,38.00
2022-12-19T20:31:51.694Z,34.20
2022-12-19T20:34:20.975Z,37.40
2022-12-19T20:36:53.041Z,36.90
2022-12-19T20:39:23.001Z,38.60
2022-12-19T20:41:54.907Z,35.80
2022-12-19T20:44:24.596Z,33.70
2022-12-19T20:46:53.100Z,34.30
2022-12-19T20:49:23.549Z,35.10
2022-12-19T20:51:51.758Z,38.00
2022-12-19T20:54:20.055Z,35.80
2022-12-19T20:56:54.591Z,35.50
2022-12-19T20:59:22.804Z,37.00
2022-12-19T21:01:50.920Z,34.90
2022-12-19T21:04:19.058Z,37.40
2022-12-19T21:06:48.066Z,41.10
2022-12-19T21:09:16.545Z,41.00
2022-12-19T21:11:45.073Z,34.80
2022-12-19T21:14:13.227Z,36.30
2022-12-19T21:16:41.382Z,38.60
2022-12-19T21:19:09.541Z,38.80
2022-12-19T21:21:37.594Z,35.20
2022-12-19T21:24:05.847Z,40.40
2022-12-19T21:26:34.554Z,39.20
2022-12-19T21:29:03.337Z,40.00
2022-12-19T21:31:32.205Z,44.00
2022-12-19T21:34:02.565Z,40.90
2022-12-19T21:36:31.769Z,36.70
2022-12-19T21:39:02.057Z,38.40
2022-12-19T21:41:31.182Z,41.10
2022-12-19T21:44:00.784Z,38.20
2022-12-19T21:46:33.484Z,39.60
2022-12-19T21:49:03.939Z,42.40
2022-12-19T21:51:41.999Z,46.20
2022-12-19T21:54:11.375Z,43.90
2022-12-19T21:56:40.640Z,43.70
2022-12-19T21:59:17.173Z,45.80
2022-12-19T22:01:51.332Z,45.10
2022-12-19T22:04:26.566Z,47.20
2022-12-19T22:06:57.451Z,42.60
2022-12-19T22:09:25.596Z,39.00
2022-12-19T22:11:53.723Z,43.80
2022-12-19T22:14:21.851Z,43.10
2022-12-19T22:16:50.067Z,43.40
2022-12-19T22:19:19.400Z,42.80
2022-12-19T22:21:47.899Z,42.10
2022-12-19T22:24:26.506Z,44.30
2022-12-19T22:26:57.647Z,47.40
2022-12-19T22:29:28.005Z,41.30
2022-12-19T22:31:58.199Z,43.40
2022-12-19T22:34:27.754Z,40.40
2022-12-19T22:36:59.802Z,44.20
2022-12-19T22:39:33.759Z,44.00
2022-12-19T22:42:11.161Z,48.90
2022-12-19T22:44:39.904Z,44.10
2022-12-19T22:47:37.329Z,47.70
2022-12-19T22:50:07.256Z,44.80
2022-12-19T22:52:35.304Z,40.50
2022-12-19T22:55:05.847Z,40.80
2022-12-19T22:57:34.022Z,42.20
2022-12-19T23:00:02.047Z,40.20
2022-12-19T23:02:30.432Z,40.80
2022-12-19T23:04:58.790Z,40.80
2022-12-19T23:07:26.767Z,39.20
2022-12-19T23:09:54.885Z,41.50
2022-12-19T23:12:22.817Z,40.10
2022-12-19T23:14:51.040Z,39.10
2022-12-19T23:17:19.427Z,45.90
2022-12-19T23:19:48.264Z,43.70
2022-12-19T23:22:16.293Z,37.30
2022-12-19T23:24:46.708Z,40.20
2022-12-19T23:27:14.714Z,39.50
2022-12-19T23:29:44.122Z,40.00
2022-12-19T23:32:12.452Z,39.00
2022-12-19T23:34:40.735Z,38.10
2022-12-19T23:37:11.600Z,37.80
2022-12-19T23:39:40.329Z,39.20
2022-12-19T23:42:08.254Z,35.90
2022-12-19T23:44:36.290Z,36.40
2022-12-19T23:47:04.371Z,38.20
2022-12-19T23:49:33.644Z,35.80
2022-12-19T23:52:01.661Z,36.20
2022-12-19T23:54:29.881Z,33.90
2022-12-19T23:56:57.895Z,35.20
2022-12-19T23:59:25.920Z,36.60
